Pioneer, Louisiana
Current Conditions -  °F | °C
As of 8:35 AM on Friday 28 Nov 2014 (Local Time) from KBQP Reporting Station
Clear Clear  
Wind Chill: 34°   Ceiling: Unl
Heat Index: 38°   Visibility: 10mi
Dew Point: 33°   Wind: 6mph
Humidity: 79%   Direction: 140°SE
Pressure: 30.41"   Gusts: NA
Location:  32.74°N, 91.43°W
Report Text: KBQP 281435Z AUTO 14005KT 10SM CLR 04/00 A3041 RMK AO2 T00360003
Loading
Personal Weather Stations






























Interactive Weather Map New forecast layout! Learn more

10-Day Weather Forecast

Advertisements
Track Severe Weather on mobile